Time;durP1;ratioP1;P1;durP2;ratioP2;P2;SDS_P1;SDS_P2;PMS_P1;PMS_P2;Temp;Humidity;BMP_temperature;BMP_pressure;BME280_temperature;BME280_humidity;BME280_pressure;Samples;Min_cycle;Max_cycle;Signal;HPM_P1;HPM_P2
2022/02/06 00:00:59;;;;;;;5.90;2.47;;;7.70;70.40;;;;;;6228032;28;20459;-80
2022/02/06 00:04:01;;;;;;;2.22;1.10;;;7.70;70.40;;;;;;6228724;28;20085;-82
2022/02/06 00:07:04;;;;;;;3.78;1.00;;;7.70;70.50;;;;;;6227605;28;20054;-81
2022/02/06 00:10:07;;;;;;;3.78;1.30;;;7.70;70.70;;;;;;6228352;28;20053;-81
2022/02/06 00:13:09;;;;;;;6.20;0.90;;;7.80;70.60;;;;;;6227079;28;20117;-78
2022/02/06 00:16:11;;;;;;;4.70;0.73;;;7.90;70.50;;;;;;6228071;28;20050;-81
2022/02/06 00:19:13;;;;;;;6.25;0.88;;;7.90;70.10;;;;;;6227583;28;20060;-80
2022/02/06 00:22:28;;;;;;;3.28;1.05;;;8.00;70.00;;;;;;6227781;28;20527;-81
2022/02/06 00:25:35;;;;;;;3.42;1.20;;;7.90;69.90;;;;;;6232043;28;20077;-80
2022/02/06 00:28:42;;;;;;;4.50;1.17;;;7.90;69.90;;;;;;6232694;28;20088;-81
2022/02/06 00:31:55;;;;;;;5.00;1.17;;;7.80;69.80;;;;;;6233018;28;20129;-80
2022/02/06 00:38:34;;;;;;;4.13;0.90;;;7.60;70.30;;;;;;6207151;28;20053;-81
2022/02/06 00:41:36;;;;;;;5.22;0.93;;;7.70;70.50;;;;;;6235516;28;20055;-81
2022/02/06 00:44:38;;;;;;;3.92;0.57;;;7.70;70.50;;;;;;6233052;28;20046;-81
2022/02/06 00:47:42;;;;;;;4.03;1.38;;;7.70;70.30;;;;;;6245057;28;20084;-81
2022/02/06 00:50:47;;;;;;;6.18;0.88;;;7.70;70.40;;;;;;6231715;28;20054;-81
2022/02/06 00:53:50;;;;;;;3.20;0.77;;;7.80;70.40;;;;;;6231570;28;20442;-80
2022/02/06 00:56:53;;;;;;;8.77;0.70;;;7.70;70.30;;;;;;6231589;28;20119;-81
2022/02/06 00:59:55;;;;;;;10.27;3.47;;;7.70;70.60;;;;;;6231224;28;20041;-81
2022/02/06 01:02:56;;;;;;;9.80;1.52;;;7.70;70.60;;;;;;6230791;28;20049;-80
2022/02/06 01:05:58;;;;;;;3.40;0.80;;;7.70;70.60;;;;;;6230360;28;20528;-81
2022/02/06 01:09:01;;;;;;;2.42;0.77;;;7.80;70.40;;;;;;6230229;28;20061;-82
2022/02/06 01:12:04;;;;;;;1.65;1.10;;;7.70;70.60;;;;;;6254067;23;20049;-81
2022/02/06 01:15:11;;;;;;;4.40;0.70;;;7.70;70.60;;;;;;6235143;28;20042;-81
2022/02/06 01:18:20;;;;;;;2.20;0.80;;;7.70;70.60;;;;;;6235612;28;20410;-82
2022/02/06 01:21:34;;;;;;;1.65;0.98;;;7.70;70.60;;;;;;6234569;28;20050;-81
2022/02/06 01:24:42;;;;;;;5.05;0.95;;;7.60;70.50;;;;;;6234616;28;20046;-81
2022/02/06 01:27:51;;;;;;;4.03;0.90;;;7.60;70.70;;;;;;6235024;28;20104;-81
2022/02/06 01:30:59;;;;;;;6.82;1.00;;;7.50;70.80;;;;;;6235741;28;20053;-81
2022/02/06 01:34:03;;;;;;;2.22;0.80;;;7.50;70.80;;;;;;6234728;28;20042;-81
2022/02/06 01:37:11;;;;;;;9.75;1.15;;;7.50;70.80;;;;;;6234635;28;20046;-81
2022/02/06 01:40:27;;;;;;;6.15;1.33;;;7.50;71.00;;;;;;6235423;28;20097;-81
2022/02/06 01:43:37;;;;;;;2.88;0.80;;;7.50;70.80;;;;;;6234285;28;20065;-80
2022/02/06 01:46:52;;;;;;;3.65;1.15;;;7.50;70.80;;;;;;6234154;28;20544;-80
2022/02/06 02:03:19;;;;;;;6.60;1.08;;;7.20;72.00;;;;;;6236059;28;20042;-81
2022/02/06 02:06:48;;;;;;;9.68;1.38;;;7.10;72.20;;;;;;6236424;28;20046;-80
2022/02/06 02:10:10;;;;;;;3.20;1.35;;;7.10;72.60;;;;;;6238749;28;20128;-80
2022/02/06 02:13:27;;;;;;;2.80;1.27;;;7.00;72.70;;;;;;6239451;28;20423;-80
2022/02/06 02:16:59;;;;;;;4.95;1.10;;;7.00;72.90;;;;;;6236609;28;20052;-80
2022/02/06 02:20:25;;;;;;;4.32;1.33;;;7.00;73.20;;;;;;6232711;28;20050;-80
2022/02/06 02:23:52;;;;;;;5.30;0.73;;;6.90;73.10;;;;;;6231349;28;20060;-81
2022/02/06 02:27:03;;;;;;;6.78;1.67;;;6.80;73.30;;;;;;6231336;28;20049;-80
2022/02/06 02:42:54;;;;;;;4.03;0.95;;;6.70;73.70;;;;;;6216837;28;20607;-80
2022/02/06 02:44:55;;;;;;;5.88;1.15;;;6.70;74.00;;;;;;6175773;28;20061;-81
2022/02/06 02:47:27;;;;;;;4.00;0.95;;;6.60;74.00;;;;;;6230548;28;20050;-80
2022/02/06 02:50:33;;;;;;;6.05;0.77;;;6.60;74.10;;;;;;6231297;28;20045;-80
2022/02/06 02:53:39;;;;;;;9.05;1.48;;;6.60;74.30;;;;;;6231282;28;20104;-80
2022/02/06 02:56:47;;;;;;;7.97;2.45;;;6.50;74.30;;;;;;6231892;28;20519;-80
2022/02/06 03:00:00;;;;;;;1.75;0.75;;;6.50;74.40;;;;;;6230936;28;20049;-80
2022/02/06 03:03:14;;;;;;;2.25;0.60;;;6.60;74.30;;;;;;6232343;28;20064;-81
2022/02/06 03:06:15;;;;;;;2.22;0.90;;;6.50;74.20;;;;;;6232660;28;20124;-81
2022/02/06 03:09:18;;;;;;;1.92;0.80;;;6.60;74.20;;;;;;6233157;28;20045;-81
2022/02/06 03:12:26;;;;;;;2.90;1.52;;;6.60;74.00;;;;;;6233539;28;20056;-81
2022/02/06 03:15:38;;;;;;;4.10;0.68;;;6.60;74.10;;;;;;6230065;28;20042;-81
2022/02/06 03:18:45;;;;;;;7.22;1.10;;;6.60;74.00;;;;;;6231428;28;20046;-80
2022/02/06 03:21:47;;;;;;;2.13;0.60;;;6.60;74.00;;;;;;6231243;28;20462;-81
2022/02/06 03:24:55;;;;;;;7.38;0.98;;;6.60;73.80;;;;;;6231171;28;20053;-81
2022/02/06 03:27:58;;;;;;;5.95;2.08;;;6.70;73.60;;;;;;6233087;28;20049;-81
2022/02/06 03:31:00;;;;;;;5.00;1.02;;;6.70;73.30;;;;;;6230468;28;20053;-81
2022/02/06 03:34:01;;;;;;;7.22;1.15;;;6.70;73.20;;;;;;6230839;28;20050;-81
2022/02/06 03:37:03;;;;;;;4.38;1.52;;;6.90;73.20;;;;;;6233580;28;20105;-82
2022/02/06 03:40:18;;;;;;;3.72;0.85;;;6.90;72.60;;;;;;6232879;28;20068;-81
2022/02/06 03:43:34;;;;;;;3.03;0.95;;;6.90;72.60;;;;;;6232466;28;20047;-80
2022/02/06 03:46:42;;;;;;;0.82;0.57;;;6.90;72.60;;;;;;6231558;28;20042;-81
2022/02/06 03:49:54;;;;;;;3.55;0.90;;;6.90;72.60;;;;;;6232207;28;20053;-81
2022/02/06 03:52:55;;;;;;;3.30;0.70;;;6.90;72.50;;;;;;6231165;28;20796;-80
2022/02/06 03:55:59;;;;;;;6.82;1.40;;;6.90;72.40;;;;;;6230899;28;20136;-80
2022/02/06 03:59:04;;;;;;;1.25;0.55;;;6.90;72.70;;;;;;6235532;28;20499;-81
2022/02/06 04:02:06;;;;;;;9.30;1.13;;;6.90;72.80;;;;;;6236031;28;20068;-80
2022/02/06 04:05:09;;;;;;;4.10;1.00;;;6.80;72.90;;;;;;6237459;28;20064;-81
2022/02/06 04:08:14;;;;;;;11.57;1.55;;;6.90;73.00;;;;;;6234966;28;20050;-81
2022/02/06 04:11:19;;;;;;;2.17;0.50;;;7.00;73.10;;;;;;6233141;28;20050;-81
2022/02/06 04:14:26;;;;;;;6.38;1.27;;;7.00;73.10;;;;;;6233187;28;20052;-81
2022/02/06 04:17:29;;;;;;;2.50;0.80;;;7.00;73.00;;;;;;6233647;28;20128;-81
2022/02/06 04:20:31;;;;;;;9.48;1.27;;;7.00;73.10;;;;;;6232671;28;20057;-81
2022/02/06 04:23:33;;;;;;;2.70;0.77;;;7.00;73.00;;;;;;6233455;28;20056;-81
2022/02/06 04:26:35;;;;;;;2.75;1.00;;;7.10;73.00;;;;;;6232246;28;20538;-81
2022/02/06 04:29:38;;;;;;;3.08;0.93;;;7.10;72.90;;;;;;6232153;28;20042;-81
2022/02/06 04:32:39;;;;;;;2.90;0.90;;;7.10;72.90;;;;;;6236282;28;20136;-81
2022/02/06 04:35:41;;;;;;;3.40;0.85;;;7.10;72.90;;;;;;6238523;28;20484;-81
2022/02/06 04:38:54;;;;;;;2.63;0.52;;;7.10;73.00;;;;;;6238703;28;20050;-81
2022/02/06 04:42:10;;;;;;;6.82;1.23;;;7.10;73.20;;;;;;6238372;28;20519;-81
2022/02/06 04:45:41;;;;;;;4.43;1.10;;;7.10;73.10;;;;;;6239017;28;20610;-81
2022/02/06 04:49:19;;;;;;;4.20;0.75;;;7.10;73.20;;;;;;6240622;28;20054;-81
2022/02/06 05:15:53;;;;;;;15.40;1.73;;;7.20;73.00;;;;;;6230390;28;20042;-81
2022/02/06 05:22:32;;;;;;;4.32;0.70;;;7.30;72.40;;;;;;6231709;28;20042;-80
2022/02/06 05:25:56;;;;;;;2.50;1.10;;;7.40;72.10;;;;;;6230702;28;20046;-80
2022/02/06 05:29:03;;;;;;;3.58;0.98;;;7.40;71.80;;;;;;6229512;28;20060;-80
2022/02/06 05:32:17;;;;;;;5.78;0.57;;;7.50;71.70;;;;;;6229883;28;20189;-80
2022/02/06 05:35:20;;;;;;;9.10;0.80;;;7.50;71.70;;;;;;6230173;28;20057;-80
2022/02/06 05:38:22;;;;;;;4.18;0.93;;;7.60;71.60;;;;;;6227289;28;20057;-80
2022/02/06 05:41:24;;;;;;;11.50;1.27;;;7.60;71.30;;;;;;6226977;28;20120;-80
2022/02/06 05:44:26;;;;;;;3.83;0.70;;;7.70;71.40;;;;;;6228079;28;20049;-80
2022/02/06 05:47:28;;;;;;;4.47;1.05;;;7.70;71.50;;;;;;6228405;28;20590;-80
2022/02/06 05:50:32;;;;;;;4.13;0.60;;;7.70;71.70;;;;;;6227665;28;20046;-80
2022/02/06 05:53:35;;;;;;;1.65;0.50;;;7.80;71.50;;;;;;6228960;28;20054;-81
2022/02/06 05:56:36;;;;;;;7.43;1.58;;;7.80;71.60;;;;;;6228019;28;20520;-80
2022/02/06 05:59:38;;;;;;;5.57;0.80;;;7.80;71.90;;;;;;6227705;28;20127;-81
2022/02/06 06:02:40;;;;;;;4.90;1.20;;;7.80;72.50;;;;;;6227126;28;20049;-81
2022/02/06 06:05:43;;;;;;;1.30;0.82;;;7.80;72.80;;;;;;6226316;28;20042;-81
2022/02/06 06:08:45;;;;;;;2.38;1.00;;;7.80;73.10;;;;;;6228033;28;20136;-80
2022/02/06 06:11:47;;;;;;;2.00;0.80;;;7.70;73.30;;;;;;6227043;28;20512;-80
2022/02/06 06:14:48;;;;;;;3.72;0.63;;;7.70;73.30;;;;;;6227078;28;20052;-80
2022/02/06 06:17:50;;;;;;;2.83;0.82;;;7.60;73.50;;;;;;6226726;28;20113;-79
2022/02/06 06:20:53;;;;;;;5.18;1.30;;;7.70;73.60;;;;;;6224535;28;20132;-79
2022/02/06 06:23:56;;;;;;;4.28;0.70;;;7.70;73.30;;;;;;6225642;28;20181;-79
2022/02/06 06:26:58;;;;;;;5.50;1.02;;;7.80;73.20;;;;;;6224665;28;20096;-79
2022/02/06 06:29:59;;;;;;;3.13;0.73;;;7.70;72.60;;;;;;6225013;28;20046;-79
2022/02/06 06:33:01;;;;;;;5.00;1.38;;;7.70;73.20;;;;;;6224713;28;20057;-79
2022/02/06 06:36:05;;;;;;;3.17;2.88;;;7.70;73.30;;;;;;6225132;28;20046;-79
2022/02/06 06:39:07;;;;;;;4.75;0.43;;;7.80;72.80;;;;;;6224099;28;20061;-79
2022/02/06 06:42:09;;;;;;;6.47;1.20;;;7.70;72.40;;;;;;6224160;28;20056;-79
2022/02/06 06:45:11;;;;;;;2.90;0.55;;;7.80;72.50;;;;;;6223993;28;20532;-79
2022/02/06 06:48:13;;;;;;;7.80;1.73;;;7.80;72.40;;;;;;6224827;28;20518;-79
2022/02/06 06:51:16;;;;;;;1.98;0.68;;;7.90;72.20;;;;;;6224060;28;20050;-78
2022/02/06 06:54:21;;;;;;;7.80;0.65;;;7.90;72.00;;;;;;6224441;28;20050;-79
2022/02/06 06:57:27;;;;;;;9.18;3.17;;;7.90;71.70;;;;;;6224177;28;20038;-78
2022/02/06 07:00:39;;;;;;;3.22;0.63;;;8.00;71.60;;;;;;6224425;28;20675;-78
2022/02/06 07:03:40;;;;;;;8.10;0.85;;;7.90;71.50;;;;;;6223527;28;20046;-79
2022/02/06 07:06:43;;;;;;;12.10;1.38;;;8.00;71.60;;;;;;6223571;28;20046;-78
2022/02/06 07:09:45;;;;;;;3.08;0.85;;;8.00;71.60;;;;;;6224039;28;20046;-80
2022/02/06 07:12:47;;;;;;;4.82;0.70;;;8.00;71.40;;;;;;6224717;28;20064;-80
2022/02/06 07:15:49;;;;;;;3.00;0.88;;;8.10;71.20;;;;;;6222825;28;20068;-78
2022/02/06 07:18:51;;;;;;;4.22;1.10;;;8.10;71.20;;;;;;6221965;28;20053;-79
2022/02/06 07:21:55;;;;;;;1.25;0.68;;;8.00;71.40;;;;;;6222219;28;20053;-79
2022/02/06 07:24:57;;;;;;;4.53;1.02;;;8.00;72.30;;;;;;6222236;28;20054;-79
2022/02/06 07:27:59;;;;;;;8.35;1.30;;;8.10;71.50;;;;;;6222363;28;20049;-79
2022/02/06 07:31:01;;;;;;;5.65;1.00;;;8.10;71.30;;;;;;6221786;28;20042;-79
2022/02/06 07:34:03;;;;;;;1.77;0.55;;;8.10;71.40;;;;;;6221990;28;20048;-79
2022/02/06 07:37:06;;;;;;;5.82;0.77;;;8.10;71.40;;;;;;6221996;28;20057;-79
2022/02/06 07:40:09;;;;;;;4.15;0.85;;;8.20;71.30;;;;;;6222491;28;20100;-79
2022/02/06 07:43:11;;;;;;;5.20;1.05;;;8.20;71.70;;;;;;6221735;28;20053;-79
2022/02/06 07:46:18;;;;;;;3.65;0.60;;;8.20;71.60;;;;;;6221340;28;20569;-79
2022/02/06 07:49:19;;;;;;;4.75;1.52;;;8.20;72.80;;;;;;6222036;28;20068;-79
2022/02/06 07:52:24;;;;;;;6.00;1.95;;;8.10;72.30;;;;;;6222084;28;20136;-79
2022/02/06 07:55:26;;;;;;;5.78;2.75;;;8.00;72.10;;;;;;6221594;28;20077;-79
2022/02/06 07:58:28;;;;;;;7.00;1.02;;;8.10;72.00;;;;;;6221708;28;20415;-79
2022/02/06 08:01:30;;;;;;;5.38;0.95;;;8.10;72.00;;;;;;6221974;28;21697;-79
2022/02/06 08:04:32;;;;;;;2.63;0.55;;;8.10;72.30;;;;;;6221892;28;20181;-79
2022/02/06 08:07:36;;;;;;;2.67;0.90;;;8.10;72.50;;;;;;6221342;28;20519;-80
2022/02/06 08:10:37;;;;;;;3.95;1.63;;;8.20;72.60;;;;;;6222167;28;20101;-79
2022/02/06 08:13:41;;;;;;;6.13;0.90;;;8.20;73.00;;;;;;6222219;28;20053;-78
2022/02/06 08:16:43;;;;;;;3.10;0.80;;;8.20;74.10;;;;;;6221965;28;20057;-79
2022/02/06 08:19:45;;;;;;;4.18;1.13;;;8.30;74.40;;;;;;6221937;28;20046;-79
2022/02/06 08:22:48;;;;;;;2.03;0.50;;;8.20;75.00;;;;;;6221694;28;20056;-79
2022/02/06 08:25:50;;;;;;;3.63;0.55;;;8.10;75.50;;;;;;6221146;28;20045;-79
2022/02/06 08:28:59;;;;;;;7.68;1.42;;;8.10;75.20;;;;;;6221865;28;20173;-78
2022/02/06 08:32:05;;;;;;;3.58;1.42;;;8.10;74.80;;;;;;6221069;28;20046;-80
2022/02/06 08:35:10;;;;;;;4.85;1.00;;;8.10;74.90;;;;;;6220713;28;20419;-80
2022/02/06 08:38:13;;;;;;;3.13;0.60;;;8.20;74.90;;;;;;6221086;28;20057;-79
2022/02/06 08:41:15;;;;;;;4.43;0.88;;;8.30;75.10;;;;;;6220892;28;20049;-78
2022/02/06 08:44:17;;;;;;;5.38;0.90;;;8.20;75.40;;;;;;6222993;28;20081;-79
2022/02/06 08:47:19;;;;;;;5.45;1.02;;;8.20;76.00;;;;;;6225459;28;20038;-79
2022/02/06 08:50:21;;;;;;;5.55;1.33;;;8.20;76.00;;;;;;6225766;28;20046;-79
2022/02/06 08:53:24;;;;;;;4.55;0.80;;;8.10;75.70;;;;;;6225325;28;20514;-79
2022/02/06 08:56:29;;;;;;;7.05;0.60;;;8.20;76.20;;;;;;6226505;28;20070;-79
2022/02/06 08:59:31;;;;;;;2.58;0.47;;;8.10;75.10;;;;;;6225968;28;20050;-79
2022/02/06 09:02:32;;;;;;;4.07;0.65;;;8.10;74.90;;;;;;6226116;28;20046;-79
2022/02/06 09:05:35;;;;;;;3.85;0.90;;;8.20;74.60;;;;;;6225987;28;20052;-80
2022/02/06 09:08:38;;;;;;;1.48;0.52;;;8.20;74.90;;;;;;6226790;28;20058;-79
2022/02/06 09:11:40;;;;;;;2.58;0.75;;;8.30;77.00;;;;;;6225645;28;20050;-79
2022/02/06 09:14:42;;;;;;;5.90;0.80;;;8.20;78.00;;;;;;6225819;28;20056;-79
2022/02/06 09:17:44;;;;;;;3.60;1.00;;;8.10;79.10;;;;;;6225258;28;20500;-78
2022/02/06 09:20:46;;;;;;;2.60;0.57;;;8.00;79.40;;;;;;6225569;28;20136;-78
2022/02/06 09:23:49;;;;;;;4.53;0.70;;;8.00;80.20;;;;;;6224529;28;20057;-78
2022/02/06 09:26:51;;;;;;;3.30;1.35;;;7.90;79.50;;;;;;6224117;28;20694;-78
2022/02/06 09:29:53;;;;;;;4.60;1.13;;;7.90;79.10;;;;;;6224631;28;20118;-77
2022/02/06 09:35:55;;;;;;;5.65;0.80;;;8.00;78.50;;;;;;6224054;28;20050;-79
2022/02/06 09:38:58;;;;;;;2.75;0.52;;;8.10;78.30;;;;;;6224227;28;20525;-78
2022/02/06 09:42:01;;;;;;;4.50;1.17;;;8.10;78.00;;;;;;6223946;28;20104;-78
2022/02/06 09:45:03;;;;;;;2.88;0.52;;;8.20;77.80;;;;;;6223718;28;20531;-79
2022/02/06 09:48:05;;;;;;;2.92;0.85;;;8.20;77.40;;;;;;6224680;28;20089;-79
2022/02/06 09:51:09;;;;;;;3.20;0.73;;;8.20;78.60;;;;;;6224248;28;20053;-79
2022/02/06 09:54:13;;;;;;;6.50;0.85;;;8.20;80.20;;;;;;6223665;28;20049;-79
2022/02/06 09:57:24;;;;;;;5.82;1.48;;;8.10;81.10;;;;;;6223968;28;20056;-79
2022/02/06 10:00:29;;;;;;;4.53;1.08;;;8.00;80.90;;;;;;6226879;28;20562;-79
2022/02/06 10:03:37;;;;;;;2.72;1.20;;;7.90;81.10;;;;;;6226609;28;20057;-79
2022/02/06 10:06:48;;;;;;;5.38;0.70;;;8.00;81.90;;;;;;6207940;28;20054;-79
2022/02/06 10:09:56;;;;;;;1.65;0.38;;;8.00;81.50;;;;;;6211563;28;20050;-79
2022/02/06 10:13:01;;;;;;;7.95;0.98;;;7.90;82.50;;;;;;6225140;28;20133;-79
2022/02/06 10:16:03;;;;;;;5.28;1.42;;;7.80;84.40;;;;;;6225458;28;20061;-81
2022/02/06 10:19:05;;;;;;;2.45;0.73;;;7.60;88.00;;;;;;6224930;28;20050;-80
2022/02/06 10:22:22;;;;;;;3.40;0.65;;;7.50;87.90;;;;;;6225991;28;20064;-82
2022/02/06 10:25:26;;;;;;;3.47;0.68;;;7.50;89.20;;;;;;6227559;28;20495;-79
2022/02/06 10:28:36;;;;;;;1.55;0.43;;;7.50;90.60;;;;;;6226026;28;20049;-79
2022/02/06 10:31:40;;;;;;;1.35;0.50;;;7.50;89.60;;;;;;6220275;28;20153;-79
2022/02/06 10:34:42;;;;;;;2.05;0.30;;;7.50;88.70;;;;;;6226554;28;20454;-80
2022/02/06 10:37:44;;;;;;;1.67;0.60;;;7.40;88.50;;;;;;6210130;28;20050;-79
2022/02/06 10:41:05;;;;;;;4.15;1.00;;;7.40;89.80;;;;;;6225358;28;20052;-80
2022/02/06 10:44:09;;;;;;;26.65;8.80;;;7.30;90.20;;;;;;6226020;28;20061;-79
2022/02/06 10:47:11;;;;;;;4.57;1.17;;;7.10;91.30;;;;;;6223815;28;20057;-80
2022/02/06 10:50:14;;;;;;;7.57;1.90;;;7.00;92.00;;;;;;6224303;28;20049;-78
2022/02/06 10:53:18;;;;;;;2.13;1.05;;;7.00;92.80;;;;;;6223626;28;20041;-79
2022/02/06 10:56:21;;;;;;;7.18;0.70;;;6.90;93.00;;;;;;6224338;28;20480;-78
2022/02/06 10:59:22;;;;;;;0.88;0.43;;;6.90;93.20;;;;;;6223946;28;20049;-78
2022/02/06 11:02:26;;;;;;;5.53;0.77;;;6.90;94.40;;;;;;6226353;28;20046;-80
2022/02/06 11:05:35;;;;;;;2.63;0.80;;;7.00;94.80;;;;;;6226193;28;20046;-79
2022/02/06 11:08:39;;;;;;;0.80;0.30;;;7.00;95.00;;;;;;6209962;28;20058;-78
2022/02/06 11:11:42;;;;;;;1.25;0.43;;;7.00;95.40;;;;;;6199922;28;20050;-79
2022/02/06 11:14:47;;;;;;;5.60;1.35;;;6.90;94.80;;;;;;6199150;28;20046;-79
2022/02/06 11:18:03;;;;;;;3.63;0.80;;;6.90;94.90;;;;;;6201553;28;20054;-80
2022/02/06 11:21:07;;;;;;;1.30;0.35;;;6.90;94.80;;;;;;6209743;28;20087;-79
2022/02/06 11:24:10;;;;;;;1.05;0.43;;;6.90;95.10;;;;;;6227264;28;20508;-79
2022/02/06 11:27:14;;;;;;;4.97;1.00;;;6.90;95.70;;;;;;6226617;28;20057;-80
2022/02/06 11:30:16;;;;;;;4.95;0.82;;;6.90;96.60;;;;;;6228004;28;20045;-79
2022/02/06 11:33:18;;;;;;;8.38;1.05;;;6.90;96.50;;;;;;6222685;28;20049;-79
2022/02/06 11:42:57;;;;;;;4.22;0.90;;;6.90;96.00;;;;;;6218374;28;20129;-79
2022/02/06 11:43:49;;;;;;;5.93;1.00;;;7.00;96.20;;;;;;6203917;28;20043;-80
2022/02/06 11:47:03;;;;;;;11.27;2.53;;;7.10;96.10;;;;;;6207216;28;20416;-78
2022/02/06 11:50:10;;;;;;;7.90;0.82;;;7.10;96.40;;;;;;6224376;28;20042;-79
2022/02/06 11:53:26;;;;;;;1.65;0.47;;;7.10;96.10;;;;;;6203740;28;20516;-79
2022/02/06 11:56:38;;;;;;;5.28;1.48;;;7.20;95.60;;;;;;6210204;28;20065;-79
2022/02/06 11:59:41;;;;;;;2.70;0.43;;;7.20;95.50;;;;;;6206792;28;20054;-79
2022/02/06 12:02:44;;;;;;;2.03;0.85;;;7.20;95.00;;;;;;6205254;28;20042;-79
2022/02/06 12:05:58;;;;;;;2.03;0.73;;;7.20;95.70;;;;;;6223678;28;20061;-79
2022/02/06 12:09:18;;;;;;;6.47;0.80;;;7.10;94.80;;;;;;6212881;28;20050;-79
2022/02/06 12:12:24;;;;;;;5.82;0.80;;;7.10;94.70;;;;;;6224807;28;20046;-79
2022/02/06 12:15:29;;;;;;;1.45;0.60;;;7.10;95.20;;;;;;6218408;28;20046;-82
2022/02/06 12:18:32;;;;;;;3.88;1.05;;;7.10;95.60;;;;;;6210833;28;20053;-81
2022/02/06 12:21:35;;;;;;;5.18;2.05;;;7.10;95.80;;;;;;6222632;28;20047;-81
2022/02/06 12:24:38;;;;;;;8.02;0.50;;;7.10;95.40;;;;;;6211549;28;20056;-79
2022/02/06 12:27:40;;;;;;;2.20;0.65;;;7.10;95.50;;;;;;6218262;28;20058;-79
2022/02/06 12:30:44;;;;;;;4.40;0.57;;;7.10;95.40;;;;;;6219732;28;20092;-79
2022/02/06 12:33:55;;;;;;;10.15;0.77;;;7.10;95.60;;;;;;6222033;28;20487;-80
2022/02/06 12:37:07;;;;;;;3.50;0.75;;;7.10;95.40;;;;;;6223369;28;20053;-81
2022/02/06 12:40:12;;;;;;;4.60;0.80;;;7.00;96.40;;;;;;6213797;28;20043;-81
2022/02/06 12:43:14;;;;;;;8.88;0.68;;;7.00;96.80;;;;;;6215455;28;20056;-81
2022/02/06 12:46:17;;;;;;;5.00;1.10;;;6.90;96.70;;;;;;6213688;28;20461;-79
2022/02/06 12:49:29;;;;;;;3.47;0.82;;;6.90;96.80;;;;;;6210575;28;20047;-80
2022/02/06 12:52:36;;;;;;;1.45;0.50;;;6.90;97.00;;;;;;6212056;28;20492;-81
2022/02/06 12:55:38;;;;;;;4.50;0.63;;;6.90;96.90;;;;;;6212035;28;20047;-81
2022/02/06 12:58:48;;;;;;;3.17;0.98;;;6.90;96.70;;;;;;6211694;28;20130;-81
2022/02/06 13:01:54;;;;;;;5.30;1.42;;;6.90;96.50;;;;;;6211297;28;20054;-80
2022/02/06 13:05:00;;;;;;;5.95;1.27;;;6.90;96.80;;;;;;6209793;28;20053;-79
2022/02/06 13:08:02;;;;;;;6.60;0.70;;;6.80;96.70;;;;;;6223612;28;20085;-83
2022/02/06 13:11:09;;;;;;;2.47;0.47;;;6.80;97.20;;;;;;6227377;28;20076;-81
2022/02/06 13:14:23;;;;;;;2.42;0.93;;;6.80;97.70;;;;;;6228200;23;20393;-84
2022/02/06 13:18:05;;;;;;;4.60;0.82;;;6.70;97.70;;;;;;6203802;28;20061;-83
2022/02/06 13:21:20;;;;;;;1.05;0.77;;;6.70;97.90;;;;;;6209258;28;20059;-82
2022/02/06 13:24:37;;;;;;;6.25;0.80;;;6.70;98.10;;;;;;6208206;28;20051;-81
2022/02/06 13:27:59;;;;;;;1.20;0.40;;;6.60;97.90;;;;;;6206954;28;20046;-83
2022/02/06 13:31:19;;;;;;;4.70;0.82;;;6.60;98.30;;;;;;6205708;28;20089;-82
2022/02/06 13:34:38;;;;;;;3.03;1.00;;;6.60;98.30;;;;;;6206725;28;20046;-83
2022/02/06 13:37:45;;;;;;;1.17;0.32;;;6.60;98.30;;;;;;6206020;28;20051;-85
2022/02/06 13:40:49;;;;;;;1.67;0.60;;;6.60;98.80;;;;;;6207892;28;20054;-81
2022/02/06 13:43:54;;;;;;;1.65;0.63;;;6.60;98.80;;;;;;6206729;28;20451;-83
2022/02/06 13:46:57;;;;;;;2.55;0.77;;;6.70;99.00;;;;;;6207192;28;20050;-85
2022/02/06 13:50:02;;;;;;;4.35;0.73;;;6.70;99.00;;;;;;6207097;28;20150;-82
2022/02/06 13:53:13;;;;;;;0.20;0.20;;;6.70;99.00;;;;;;6200780;28;20054;-80
2022/02/06 13:56:16;;;;;;;0.00;0.00;;;6.80;99.30;;;;;;6203075;28;20050;-80
2022/02/06 13:59:22;;;;;;;0.00;0.00;;;6.70;99.20;;;;;;6202889;28;20570;-79
2022/02/06 14:02:24;;;;;;;0.00;0.00;;;6.90;99.10;;;;;;6202181;28;20046;-80
2022/02/06 14:05:28;;;;;;;0.00;0.00;;;6.80;99.00;;;;;;6197819;28;20130;-79
2022/02/06 14:08:33;;;;;;;0.00;0.00;;;6.80;98.80;;;;;;6185583;28;20182;-80
2022/02/06 14:11:35;;;;;;;0.00;0.00;;;6.70;98.80;;;;;;6177884;28;20513;-82
2022/02/06 14:14:47;;;;;;;0.00;0.00;;;6.80;98.80;;;;;;6177802;28;20054;-79
2022/02/06 14:17:50;;;;;;;0.00;0.00;;;6.80;98.80;;;;;;6178192;28;20054;-79
2022/02/06 14:20:58;;;;;;;0.00;0.00;;;6.80;98.80;;;;;;6178956;28;20181;-81
2022/02/06 14:24:04;;;;;;;0.00;0.00;;;6.80;98.70;;;;;;6177068;28;20067;-80
2022/02/06 14:27:06;;;;;;;0.00;0.00;;;6.80;99.00;;;;;;6177122;28;20046;-79
2022/02/06 14:30:11;;;;;;;0.00;0.00;;;6.80;99.00;;;;;;6176731;28;20125;-80
2022/02/06 14:33:20;;;;;;;0.00;0.00;;;6.70;99.00;;;;;;6177296;28;20461;-79
2022/02/06 14:36:25;;;;;;;0.00;0.00;;;6.70;99.20;;;;;;6176206;28;20050;-80
2022/02/06 14:39:33;;;;;;;0.00;0.00;;;6.60;99.30;;;;;;6174771;28;20042;-79
2022/02/06 14:42:36;;;;;;;0.00;0.00;;;6.70;99.40;;;;;;6174550;28;20047;-81
2022/02/06 14:45:45;;;;;;;0.88;0.82;;;6.60;99.40;;;;;;6167886;28;20074;-80
2022/02/06 14:48:47;;;;;;;0.00;0.00;;;6.60;99.60;;;;;;6176356;28;20460;-79
2022/02/06 14:51:51;;;;;;;0.00;0.00;;;6.60;99.60;;;;;;6176231;28;20516;-81
2022/02/06 14:54:52;;;;;;;0.00;0.00;;;6.70;99.60;;;;;;6176283;28;20047;-82
2022/02/06 14:57:54;;;;;;;0.10;0.10;;;6.60;99.60;;;;;;6176481;28;20128;-78
2022/02/06 15:00:56;;;;;;;0.00;0.00;;;6.60;99.70;;;;;;6177103;28;20416;-80
2022/02/06 15:03:58;;;;;;;0.00;0.00;;;6.60;99.70;;;;;;6176806;28;20047;-81
2022/02/06 15:07:05;;;;;;;0.00;0.00;;;6.60;99.70;;;;;;6175606;28;20585;-82
2022/02/06 15:10:10;;;;;;;0.00;0.00;;;6.70;99.70;;;;;;6176139;28;20054;-81
2022/02/06 15:13:30;;;;;;;0.00;0.00;;;6.70;99.60;;;;;;6175615;28;20069;-81
2022/02/06 15:16:36;;;;;;;0.00;0.00;;;6.80;99.70;;;;;;6176515;28;20117;-82
2022/02/06 15:19:44;;;;;;;0.00;0.00;;;6.80;99.60;;;;;;6166752;28;20500;-81
2022/02/06 15:22:53;;;;;;;0.00;0.00;;;6.80;99.60;;;;;;6173867;28;20130;-81
2022/02/06 15:25:58;;;;;;;0.00;0.00;;;6.80;99.50;;;;;;6175569;28;20121;-81
2022/02/06 15:29:00;;;;;;;0.00;0.00;;;6.80;99.50;;;;;;6175842;28;20078;-82
2022/02/06 15:32:02;;;;;;;0.00;0.00;;;6.90;99.50;;;;;;6177713;28;20054;-80
2022/02/06 15:35:04;;;;;;;0.00;0.00;;;6.90;99.40;;;;;;6175109;28;20098;-80
2022/02/06 15:38:09;;;;;;;0.32;0.32;;;7.00;99.50;;;;;;6174623;28;20050;-80
2022/02/06 15:41:12;;;;;;;0.00;0.00;;;7.00;99.10;;;;;;6175738;28;20496;-80
2022/02/06 15:44:14;;;;;;;0.00;0.00;;;7.00;99.10;;;;;;6176862;28;20081;-79
2022/02/06 15:47:17;;;;;;;0.00;0.00;;;7.00;99.00;;;;;;6175238;28;20122;-79
2022/02/06 15:50:19;;;;;;;0.00;0.00;;;7.00;99.00;;;;;;6175483;28;20051;-79
2022/02/06 15:53:22;;;;;;;0.00;0.00;;;7.00;99.00;;;;;;6177240;28;20043;-80
2022/02/06 15:56:24;;;;;;;0.00;0.00;;;7.10;98.90;;;;;;6181175;28;20113;-81
2022/02/06 15:59:25;;;;;;;0.00;0.00;;;7.10;98.80;;;;;;6180510;28;20534;-79
2022/02/06 16:02:27;;;;;;;0.00;0.00;;;7.20;98.70;;;;;;6180868;28;20050;-80
2022/02/06 16:05:29;;;;;;;0.00;0.00;;;7.20;98.40;;;;;;6179783;28;20051;-80
2022/02/06 16:08:32;;;;;;;0.00;0.00;;;7.20;98.50;;;;;;6180038;28;20050;-80
2022/02/06 16:11:35;;;;;;;0.00;0.00;;;7.20;98.10;;;;;;6180958;28;20523;-80
2022/02/06 16:14:39;;;;;;;0.00;0.00;;;7.30;98.20;;;;;;6179488;28;20053;-80
2022/02/06 16:17:41;;;;;;;0.00;0.00;;;7.30;98.30;;;;;;6182538;28;20054;-80
2022/02/06 16:20:44;;;;;;;0.00;0.00;;;7.20;97.90;;;;;;6181522;28;20058;-79
2022/02/06 16:23:47;;;;;;;0.00;0.00;;;7.40;97.90;;;;;;6180133;28;20397;-79
2022/02/06 16:26:49;;;;;;;0.00;0.00;;;7.30;97.60;;;;;;6179532;28;20046;-80
2022/02/06 16:29:54;;;;;;;0.00;0.00;;;7.30;97.60;;;;;;6182141;28;20174;-80
2022/02/06 16:32:56;;;;;;;0.00;0.00;;;7.30;97.80;;;;;;6181722;28;20055;-80
2022/02/06 16:35:57;;;;;;;0.00;0.00;;;7.30;97.80;;;;;;6181705;28;20066;-81
2022/02/06 16:39:01;;;;;;;0.00;0.00;;;7.30;97.70;;;;;;6179161;28;20050;-81
2022/02/06 16:42:03;;;;;;;0.00;0.00;;;7.30;97.80;;;;;;6181387;28;20069;-80
2022/02/06 16:45:05;;;;;;;0.00;0.00;;;7.30;97.70;;;;;;6180121;28;20061;-80
2022/02/06 16:48:07;;;;;;;0.57;0.25;;;7.20;97.70;;;;;;6180470;28;20050;-81
2022/02/06 16:51:09;;;;;;;1.15;0.73;;;7.20;97.70;;;;;;6179782;28;20042;-80
2022/02/06 16:54:12;;;;;;;2.75;0.20;;;7.20;97.70;;;;;;6179812;28;20046;-80
2022/02/06 16:57:14;;;;;;;1.80;0.75;;;7.20;97.60;;;;;;6180579;28;20051;-80
2022/02/06 17:00:16;;;;;;;3.22;0.80;;;7.20;97.60;;;;;;6180496;28;20102;-80
2022/02/06 17:03:18;;;;;;;3.08;0.70;;;7.30;97.60;;;;;;6190421;28;20046;-80
2022/02/06 17:06:21;;;;;;;4.47;0.82;;;7.30;97.60;;;;;;6178014;28;20129;-80
2022/02/06 17:09:25;;;;;;;2.58;1.58;;;7.30;97.50;;;;;;6184452;28;20042;-80
2022/02/06 17:12:27;;;;;;;1.67;0.47;;;7.30;97.50;;;;;;6203855;28;20046;-80
2022/02/06 17:15:29;;;;;;;0.90;0.47;;;7.30;97.40;;;;;;6180857;28;20085;-79
2022/02/06 17:18:31;;;;;;;1.38;0.80;;;7.30;97.50;;;;;;6177052;28;20046;-79
2022/02/06 17:21:33;;;;;;;3.13;0.75;;;7.30;97.50;;;;;;6176570;28;20057;-79